Time;durP1;ratioP1;P1;durP2;ratioP2;P2;SDS_P1;SDS_P2;PMS_P1;PMS_P2;Temp;Humidity;BMP_temperature;BMP_pressure;BME280_temperature;BME280_humidity;BME280_pressure;Samples;Min_cycle;Max_cycle;Signal;HPM_P1;HPM_P2
2022/03/24 00:02:07;;;;;;;10.75;6.65;;;20.40;56.90;;;;;;4968949;28;87771;-69
2022/03/24 00:04:33;;;;;;;9.35;6.70;;;20.40;56.60;;;;;;4968409;28;88094;-70
2022/03/24 00:06:59;;;;;;;9.43;6.43;;;20.40;56.60;;;;;;4969080;28;87562;-70
2022/03/24 00:09:24;;;;;;;9.27;6.63;;;20.40;56.50;;;;;;4967158;28;90747;-73
2022/03/24 00:11:50;;;;;;;9.65;6.43;;;20.40;56.80;;;;;;4968727;28;88231;-70
2022/03/24 00:14:19;;;;;;;8.05;6.20;;;20.40;56.40;;;;;;4968228;28;86867;-71
2022/03/24 00:16:45;;;;;;;;;;;20.40;57.00;;;;;;4968838;28;88127;-72
2022/03/24 00:19:11;;;;;;;10.90;5.72;;;20.40;57.10;;;;;;4968071;28;89842;-69
2022/03/24 00:21:37;;;;;;;9.07;6.38;;;20.40;57.10;;;;;;4967940;28;88589;-72
2022/03/24 00:24:03;;;;;;;8.95;6.55;;;20.40;57.20;;;;;;4967178;28;90159;-69
2022/03/24 00:26:29;;;;;;;11.20;7.07;;;20.40;57.20;;;;;;4967852;28;88179;-69
2022/03/24 00:28:55;;;;;;;8.05;6.13;;;20.40;57.30;;;;;;4966411;28;90770;-70
2022/03/24 00:31:20;;;;;;;7.22;5.82;;;20.30;57.20;;;;;;4969253;28;87504;-72
2022/03/24 00:33:46;;;;;;;9.00;6.20;;;20.30;57.30;;;;;;4967379;28;88548;-73
2022/03/24 00:36:14;;;;;;;11.35;6.72;;;20.40;57.30;;;;;;4953144;28;91788;-68
2022/03/24 00:38:40;;;;;;;9.02;6.10;;;20.30;57.20;;;;;;4971160;28;91414;-74
2022/03/24 00:41:06;;;;;;;6.78;5.75;;;20.30;57.10;;;;;;4971417;28;87892;-69
2022/03/24 00:43:32;;;;;;;7.63;6.03;;;20.30;57.10;;;;;;4971652;28;88024;-69
2022/03/24 00:46:01;;;;;;;8.18;6.53;;;20.30;57.20;;;;;;4970512;28;88484;-69
2022/03/24 00:48:26;;;;;;;8.20;5.90;;;20.30;57.10;;;;;;4971495;28;90539;-71
2022/03/24 00:50:53;;;;;;;7.32;5.95;;;20.30;57.00;;;;;;4958803;28;87349;-70
2022/03/24 00:53:19;;;;;;;9.27;5.97;;;20.30;57.00;;;;;;4970484;28;90628;-72
2022/03/24 00:55:44;;;;;;;7.50;6.18;;;20.30;56.90;;;;;;4972050;28;88779;-72
2022/03/24 00:58:13;;;;;;;8.45;6.55;;;20.30;57.00;;;;;;4971952;28;88033;-69
2022/03/24 01:00:40;;;;;;;9.80;6.97;;;20.30;56.90;;;;;;4971462;28;87717;-73
2022/03/24 01:03:06;;;;;;;7.32;6.22;;;20.30;56.70;;;;;;4969366;28;90131;-73
2022/03/24 01:05:34;;;;;;;9.27;6.55;;;20.30;56.40;;;;;;4972242;28;87553;-71
2022/03/24 01:08:00;;;;;;;7.70;6.50;;;20.30;56.50;;;;;;4970404;28;90872;-68
2022/03/24 01:10:26;;;;;;;9.88;6.78;;;20.20;56.50;;;;;;4971577;28;89114;-69
2022/03/24 01:12:51;;;;;;;9.18;6.95;;;20.20;56.30;;;;;;4971685;28;87693;-70
2022/03/24 01:15:22;;;;;;;7.13;6.43;;;20.30;56.30;;;;;;4971043;28;88609;-74
2022/03/24 01:17:49;;;;;;;7.75;6.53;;;20.20;56.20;;;;;;4971561;28;87820;-71
2022/03/24 01:20:15;;;;;;;8.20;6.85;;;20.20;56.30;;;;;;4971914;28;87534;-69
2022/03/24 01:22:41;;;;;;;9.00;6.63;;;20.20;56.30;;;;;;4972179;28;87192;-72
2022/03/24 01:25:07;;;;;;;8.15;6.95;;;20.20;56.00;;;;;;4971985;28;87552;-73
2022/03/24 01:27:34;;;;;;;8.05;6.55;;;20.20;56.00;;;;;;4972099;28;89593;-69
2022/03/24 01:30:00;;;;;;;7.43;6.50;;;20.20;55.90;;;;;;4971899;28;87727;-74
2022/03/24 01:32:27;;;;;;;10.57;6.35;;;20.20;56.00;;;;;;4969285;28;89592;-73
2022/03/24 01:34:53;;;;;;;8.70;6.95;;;20.20;56.00;;;;;;4970562;28;89576;-70
2022/03/24 01:37:22;;;;;;;8.68;6.22;;;20.20;55.90;;;;;;4970898;28;88296;-73
2022/03/24 01:39:48;;;;;;;8.20;6.50;;;20.20;55.90;;;;;;4969822;28;87307;-68
2022/03/24 01:42:16;;;;;;;7.68;6.60;;;20.10;55.80;;;;;;4971897;28;88278;-69
2022/03/24 01:44:46;;;;;;;7.78;6.57;;;20.10;55.70;;;;;;4969614;28;88527;-70
2022/03/24 01:47:12;;;;;;;7.70;6.82;;;20.10;55.70;;;;;;4971296;28;88088;-68
2022/03/24 01:49:40;;;;;;;8.23;6.85;;;20.10;55.90;;;;;;4970891;28;87108;-72
2022/03/24 01:52:08;;;;;;;8.57;6.65;;;20.10;55.90;;;;;;4970106;28;90126;-69
2022/03/24 01:54:36;;;;;;;9.82;7.50;;;20.10;55.90;;;;;;4969458;28;91200;-71
2022/03/24 01:57:03;;;;;;;9.13;7.18;;;20.10;55.70;;;;;;4969834;28;90852;-68
2022/03/24 01:59:29;;;;;;;9.05;6.43;;;20.10;55.80;;;;;;4969076;28;89113;-73
2022/03/24 02:01:55;;;;;;;7.22;6.35;;;20.10;55.70;;;;;;4969220;28;89823;-68
2022/03/24 02:04:21;;;;;;;9.50;6.85;;;20.10;55.60;;;;;;4970730;28;88120;-71
2022/03/24 02:06:47;;;;;;;7.28;6.55;;;20.10;55.60;;;;;;4971036;28;87423;-72
2022/03/24 02:09:14;;;;;;;7.40;6.25;;;20.10;55.50;;;;;;4971149;28;86997;-70
2022/03/24 02:11:39;;;;;;;7.57;6.72;;;20.10;55.80;;;;;;4970568;28;87624;-74
2022/03/24 02:14:08;;;;;;;8.15;6.30;;;20.10;55.50;;;;;;4968016;28;91354;-70
2022/03/24 02:16:38;;;;;;;8.07;6.25;;;20.10;55.70;;;;;;4971042;28;87762;-69
2022/03/24 02:19:21;;;;;;;9.32;6.95;;;20.10;55.40;;;;;;4969577;28;87167;-69
2022/03/24 02:21:48;;;;;;;10.02;6.75;;;20.10;55.40;;;;;;4969186;28;89859;-71
2022/03/24 02:24:16;;;;;;;8.70;6.57;;;20.00;55.30;;;;;;4968357;28;90980;-76
2022/03/24 02:26:44;;;;;;;7.88;6.18;;;20.00;55.40;;;;;;4970580;28;89346;-69
2022/03/24 02:29:11;;;;;;;6.95;6.00;;;20.00;55.50;;;;;;4969046;28;87360;-72
2022/03/24 02:31:39;;;;;;;8.27;6.50;;;20.00;55.20;;;;;;4970218;28;88033;-70
2022/03/24 02:36:57;;;;;;;8.00;6.57;;;20.00;55.30;;;;;;4969924;28;87707;-71
2022/03/24 02:39:24;;;;;;;7.25;6.47;;;20.00;55.30;;;;;;4970319;28;87621;-73
2022/03/24 02:41:56;;;;;;;8.43;6.97;;;20.00;55.30;;;;;;4971160;28;87262;-71
2022/03/24 02:44:25;;;;;;;7.38;6.35;;;20.00;55.10;;;;;;4969506;28;88523;-70
2022/03/24 02:46:54;;;;;;;9.82;7.05;;;20.00;55.00;;;;;;4967190;28;91239;-74
2022/03/24 02:49:26;;;;;;;8.43;6.67;;;20.00;55.20;;;;;;4969649;28;88015;-72
2022/03/24 02:51:54;;;;;;;7.18;6.43;;;20.00;55.10;;;;;;4969755;28;88189;-69
2022/03/24 02:54:21;;;;;;;8.70;6.80;;;20.00;55.10;;;;;;4967491;28;90932;-73
2022/03/24 02:56:46;;;;;;;8.38;6.95;;;20.00;55.00;;;;;;4970531;28;87916;-71
2022/03/24 02:59:13;;;;;;;8.23;6.55;;;19.90;55.00;;;;;;4970437;28;87645;-70
2022/03/24 03:01:45;;;;;;;8.23;6.68;;;19.90;54.90;;;;;;4970807;28;87379;-70
2022/03/24 03:04:14;;;;;;;8.13;6.47;;;19.90;54.90;;;;;;4970202;28;88354;-69
2022/03/24 03:06:39;;;;;;;7.30;6.40;;;19.90;54.90;;;;;;4970810;28;87315;-70
2022/03/24 03:09:06;;;;;;;7.43;6.50;;;19.90;55.00;;;;;;4970939;28;87740;-69
2022/03/24 03:11:32;;;;;;;8.85;6.72;;;19.90;54.90;;;;;;4968046;28;89812;-70
2022/03/24 03:14:00;;;;;;;6.68;5.82;;;19.90;54.90;;;;;;4968949;28;89169;-69
2022/03/24 03:16:26;;;;;;;7.10;6.40;;;19.90;54.90;;;;;;4969086;28;88940;-69
2022/03/24 03:18:53;;;;;;;7.22;6.53;;;19.90;55.00;;;;;;4968956;28;87977;-69
2022/03/24 03:21:20;;;;;;;8.70;7.32;;;19.90;54.90;;;;;;4969910;28;87359;-73
2022/03/24 03:23:45;;;;;;;8.00;6.50;;;19.90;54.70;;;;;;4953175;28;90932;-69
2022/03/24 03:26:12;;;;;;;7.65;6.85;;;19.90;54.80;;;;;;4968777;28;87501;-68
2022/03/24 03:28:38;;;;;;;7.57;6.30;;;19.90;54.70;;;;;;4969210;28;88098;-71
2022/03/24 03:31:05;;;;;;;8.32;7.05;;;19.90;54.80;;;;;;4969533;28;87681;-71
2022/03/24 03:33:32;;;;;;;6.82;6.07;;;19.90;54.60;;;;;;4967985;28;90679;-73
2022/03/24 03:35:58;;;;;;;8.35;6.70;;;19.90;54.50;;;;;;4969317;28;87956;-70
2022/03/24 03:38:24;;;;;;;7.10;6.40;;;19.90;54.60;;;;;;4969005;28;88752;-71
2022/03/24 03:40:52;;;;;;;8.75;6.72;;;19.90;54.60;;;;;;4969771;28;87965;-68
2022/03/24 03:43:18;;;;;;;8.88;6.85;;;19.80;54.40;;;;;;4951494;28;91263;-70
2022/03/24 03:45:44;;;;;;;9.15;6.88;;;19.80;54.60;;;;;;4969773;28;88111;-69
2022/03/24 03:48:10;;;;;;;7.53;6.57;;;19.80;54.40;;;;;;4968696;28;87657;-70
2022/03/24 03:50:37;;;;;;;7.00;6.30;;;19.80;54.40;;;;;;4967900;28;90140;-74
2022/03/24 03:53:03;;;;;;;8.48;6.95;;;19.80;54.50;;;;;;4967805;28;91539;-71
2022/03/24 03:55:30;;;;;;;9.52;6.25;;;19.80;54.40;;;;;;4970288;28;87373;-69
2022/03/24 03:57:56;;;;;;;9.55;6.90;;;19.80;54.40;;;;;;4955204;28;87648;-71
2022/03/24 04:03:06;;;;;;;8.10;6.65;;;19.80;54.50;;;;;;4969391;28;88620;-70
2022/03/24 04:05:35;;;;;;;7.05;6.35;;;19.80;54.40;;;;;;4968286;28;88975;-72
2022/03/24 04:08:03;;;;;;;7.70;6.20;;;19.80;54.40;;;;;;4967856;28;88271;-72
2022/03/24 04:10:30;;;;;;;7.70;6.47;;;19.80;54.30;;;;;;4969446;28;87382;-71
2022/03/24 04:12:59;;;;;;;7.55;6.63;;;19.80;54.20;;;;;;4972380;28;88564;-69
2022/03/24 04:15:26;;;;;;;7.93;6.55;;;19.80;54.40;;;;;;4970120;28;90079;-70
2022/03/24 04:17:52;;;;;;;6.75;6.15;;;19.80;54.30;;;;;;4972753;28;87253;-69
2022/03/24 04:20:21;;;;;;;8.80;6.45;;;19.70;54.20;;;;;;4973993;28;87178;-73
2022/03/24 04:22:50;;;;;;;;;;;19.70;54.20;;;;;;4971829;28;91663;-73
2022/03/24 04:25:17;;;;;;;8.60;6.68;;;19.80;54.30;;;;;;4974514;28;87464;-70
2022/03/24 04:27:43;;;;;;;8.63;6.53;;;19.70;54.10;;;;;;4972353;28;88522;-70
2022/03/24 04:30:12;;;;;;;7.82;6.82;;;19.70;54.00;;;;;;4972728;28;87938;-74
2022/03/24 04:32:38;;;;;;;7.38;6.57;;;19.70;54.20;;;;;;4971169;28;91163;-75
2022/03/24 04:35:04;;;;;;;7.93;6.45;;;19.80;54.30;;;;;;4972230;28;88557;-71
2022/03/24 04:37:30;;;;;;;6.85;5.97;;;19.70;54.20;;;;;;4972279;28;87747;-69
2022/03/24 04:39:55;;;;;;;7.03;5.95;;;19.70;54.20;;;;;;4954130;28;88062;-69
2022/03/24 04:42:21;;;;;;;8.68;6.55;;;19.70;54.10;;;;;;4972998;28;88144;-71
2022/03/24 04:44:47;;;;;;;8.77;6.50;;;19.70;54.00;;;;;;4972753;28;87167;-75
2022/03/24 04:47:13;;;;;;;7.65;6.47;;;19.70;54.00;;;;;;4972057;28;87706;-71
2022/03/24 04:49:39;;;;;;;7.93;6.40;;;19.70;54.30;;;;;;4954531;28;89316;-68
2022/03/24 04:52:05;;;;;;;7.80;6.80;;;19.70;54.10;;;;;;4971873;28;88317;-71
2022/03/24 04:54:30;;;;;;;6.57;5.82;;;19.70;54.00;;;;;;4972525;28;88145;-70
2022/03/24 04:56:57;;;;;;;6.97;6.28;;;19.70;54.00;;;;;;4972173;28;87922;-76
2022/03/24 04:59:23;;;;;;;6.93;6.22;;;19.70;53.90;;;;;;4972465;28;87233;-70
2022/03/24 05:01:48;;;;;;;7.50;6.38;;;19.60;54.10;;;;;;4970622;28;92012;-69
2022/03/24 05:04:15;;;;;;;7.90;6.65;;;19.60;53.90;;;;;;4972224;28;87710;-69
2022/03/24 05:06:41;;;;;;;8.10;6.60;;;19.70;53.90;;;;;;4972975;28;86887;-69
2022/03/24 05:09:07;;;;;;;7.90;6.57;;;19.60;54.00;;;;;;4970806;28;90622;-74
2022/03/24 05:11:33;;;;;;;6.35;5.70;;;19.60;53.90;;;;;;4964922;28;91597;-72
2022/03/24 05:13:58;;;;;;;6.75;6.05;;;19.60;53.80;;;;;;4969754;28;89915;-73
2022/03/24 05:16:25;;;;;;;7.60;6.00;;;19.70;53.70;;;;;;4971532;28;88869;-70
2022/03/24 05:18:51;;;;;;;6.93;6.22;;;19.60;54.30;;;;;;4971536;28;88047;-71
2022/03/24 05:21:16;;;;;;;7.72;6.38;;;19.60;53.80;;;;;;4970072;28;87514;-71
2022/03/24 05:23:42;;;;;;;7.18;6.22;;;19.60;53.90;;;;;;4970307;28;87861;-68
2022/03/24 05:26:08;;;;;;;7.25;6.55;;;19.60;53.80;;;;;;4972066;28;87430;-73
2022/03/24 05:28:33;;;;;;;8.48;6.45;;;19.60;53.60;;;;;;4971906;28;87495;-71
2022/03/24 05:30:59;;;;;;;7.32;6.43;;;19.60;53.80;;;;;;4971433;28;89922;-71
2022/03/24 05:33:24;;;;;;;7.25;6.55;;;19.60;53.80;;;;;;4971698;28;87043;-72
2022/03/24 05:35:51;;;;;;;8.05;6.65;;;19.60;53.90;;;;;;4971933;28;87766;-69
2022/03/24 05:38:17;;;;;;;7.38;6.50;;;19.60;53.60;;;;;;4971735;28;87729;-68
2022/03/24 05:40:43;;;;;;;7.30;6.40;;;19.60;53.90;;;;;;4971147;28;89081;-74
2022/03/24 05:43:08;;;;;;;7.65;6.28;;;19.60;53.70;;;;;;4971627;28;88371;-72
2022/03/24 05:45:34;;;;;;;7.38;6.28;;;19.60;53.90;;;;;;4969446;28;88006;-73
2022/03/24 05:48:00;;;;;;;6.97;6.13;;;19.60;53.90;;;;;;4971531;28;87872;-69
2022/03/24 05:50:26;;;;;;;7.07;6.32;;;19.50;53.70;;;;;;4968466;28;90513;-70
2022/03/24 05:52:54;;;;;;;7.90;6.43;;;19.60;53.70;;;;;;4971485;28;87862;-69
2022/03/24 05:55:19;;;;;;;7.32;6.40;;;19.50;53.50;;;;;;4971930;28;87752;-69
2022/03/24 05:57:45;;;;;;;7.80;6.45;;;19.50;53.50;;;;;;4969568;28;88751;-71
2022/03/24 06:00:11;;;;;;;7.70;6.85;;;19.60;53.60;;;;;;4956197;28;90968;-71
2022/03/24 06:02:38;;;;;;;7.60;6.40;;;19.50;53.40;;;;;;4970224;28;90070;-72
2022/03/24 06:05:12;;;;;;;8.23;6.88;;;19.50;53.50;;;;;;4968853;28;88402;-69
2022/03/24 06:07:38;;;;;;;7.53;6.70;;;19.50;53.50;;;;;;4968395;28;88906;-69
2022/03/24 06:10:06;;;;;;;7.30;6.22;;;19.50;53.50;;;;;;4969052;28;90500;-71
2022/03/24 06:12:31;;;;;;;7.60;6.53;;;19.50;53.40;;;;;;4968749;28;89398;-74
2022/03/24 06:14:58;;;;;;;9.38;6.75;;;19.50;53.40;;;;;;4969766;28;88246;-69
2022/03/24 06:17:23;;;;;;;6.93;6.00;;;19.50;53.00;;;;;;4969037;28;89772;-70
2022/03/24 06:19:50;;;;;;;6.57;5.90;;;19.60;53.70;;;;;;4970695;28;88252;-71
2022/03/24 06:22:16;;;;;;;8.50;6.57;;;19.50;53.80;;;;;;4970522;28;87266;-68
2022/03/24 06:24:42;;;;;;;6.57;5.93;;;19.60;53.50;;;;;;4967618;28;87981;-72
2022/03/24 06:27:08;;;;;;;12.88;6.18;;;19.60;54.00;;;;;;4968486;28;90013;-69
2022/03/24 06:29:34;;;;;;;9.93;6.68;;;19.60;53.40;;;;;;4967147;28;93068;-69
2022/03/24 06:32:00;;;;;;;12.98;9.85;;;19.60;53.70;;;;;;4962837;28;91187;-69
2022/03/24 06:34:26;;;;;;;8.10;6.38;;;19.60;51.10;;;;;;4967878;28;87682;-69
2022/03/24 06:36:54;;;;;;;10.70;7.45;;;19.60;53.50;;;;;;4970738;28;87665;-71
2022/03/24 06:39:20;;;;;;;10.35;7.05;;;19.60;53.80;;;;;;4967275;28;89486;-73
2022/03/24 06:41:46;;;;;;;11.85;7.30;;;19.60;54.00;;;;;;4970255;28;88362;-69
2022/03/24 06:44:12;;;;;;;9.02;7.20;;;19.60;54.00;;;;;;4969249;28;87597;-72
2022/03/24 06:46:38;;;;;;;11.55;6.90;;;19.60;54.10;;;;;;4969235;28;87391;-69
2022/03/24 06:49:05;;;;;;;9.45;6.88;;;19.60;54.00;;;;;;4967949;28;88144;-70
2022/03/24 06:51:31;;;;;;;7.18;6.40;;;19.70;54.10;;;;;;4970001;28;89595;-68
2022/03/24 06:53:56;;;;;;;9.73;7.22;;;19.70;53.70;;;;;;4967090;28;88370;-67
2022/03/24 06:56:23;;;;;;;9.13;6.95;;;19.70;53.40;;;;;;4968214;28;87862;-73
2022/03/24 06:58:49;;;;;;;10.18;6.43;;;19.70;53.80;;;;;;4969435;28;88669;-72
2022/03/24 07:01:15;;;;;;;9.23;7.20;;;19.70;53.90;;;;;;4970153;28;87582;-66
2022/03/24 07:03:41;;;;;;;10.23;6.95;;;19.70;53.80;;;;;;4967623;28;87909;-71
2022/03/24 07:06:07;;;;;;;10.05;7.00;;;19.70;53.80;;;;;;4967097;28;89493;-71
2022/03/24 07:08:32;;;;;;;11.05;7.00;;;19.70;53.70;;;;;;4951737;28;90902;-73
2022/03/24 07:10:58;;;;;;;12.32;7.32;;;19.70;53.80;;;;;;4970922;28;87245;-71
2022/03/24 07:13:24;;;;;;;8.20;7.32;;;19.80;53.60;;;;;;4970405;28;87453;-75
2022/03/24 07:15:50;;;;;;;10.40;7.40;;;19.80;53.70;;;;;;4970070;28;87524;-70
2022/03/24 07:18:15;;;;;;;8.32;7.07;;;19.80;53.70;;;;;;4969846;28;89240;-68
2022/03/24 07:20:42;;;;;;;8.88;7.25;;;19.80;53.60;;;;;;4970110;28;88901;-70
2022/03/24 07:23:09;;;;;;;11.82;6.93;;;19.80;53.60;;;;;;4970059;28;87583;-73
2022/03/24 07:25:36;;;;;;;11.88;7.40;;;19.80;53.60;;;;;;4967865;28;90214;-72
2022/03/24 07:28:04;;;;;;;11.00;7.57;;;19.80;53.30;;;;;;4967821;28;90215;-72
2022/03/24 07:30:30;;;;;;;8.77;7.32;;;19.80;53.30;;;;;;4968176;28;90617;-68
2022/03/24 07:32:58;;;;;;;9.18;6.88;;;19.80;53.20;;;;;;4967855;28;87049;-69
2022/03/24 07:35:24;;;;;;;9.05;7.32;;;19.80;53.50;;;;;;4968351;28;89690;-68
2022/03/24 07:37:51;;;;;;;7.80;6.90;;;19.80;53.70;;;;;;4969629;28;87740;-68
2022/03/24 07:40:18;;;;;;;9.05;7.80;;;19.80;53.70;;;;;;4967878;28;89918;-68
2022/03/24 07:42:49;;;;;;;9.43;8.18;;;19.80;53.40;;;;;;4967763;28;88819;-71
2022/03/24 07:45:15;;;;;;;11.20;7.75;;;19.80;53.20;;;;;;4970011;28;87737;-68
2022/03/24 07:48:10;;;;;;;10.45;7.57;;;19.80;53.20;;;;;;4950571;28;91194;-70
2022/03/24 07:50:38;;;;;;;9.57;7.93;;;19.90;53.40;;;;;;4968097;28;89489;-70
2022/03/24 07:53:13;;;;;;;11.05;8.18;;;19.90;53.50;;;;;;4950272;28;87570;-69
2022/03/24 07:55:41;;;;;;;17.10;8.88;;;19.90;53.10;;;;;;4969018;28;87353;-70
2022/03/24 07:58:11;;;;;;;20.83;8.43;;;19.90;53.00;;;;;;4966433;28;90582;-69
2022/03/24 08:00:37;;;;;;;18.80;10.18;;;19.90;53.30;;;;;;4968364;28;91568;-70
2022/03/24 08:05:38;;;;;;;21.50;9.77;;;20.00;54.20;;;;;;4158685;26;89137;-71
2022/03/24 08:08:04;;;;;;;24.85;11.10;;;20.00;53.60;;;;;;4928913;28;89310;-73
2022/03/24 08:10:30;;;;;;;24.58;11.00;;;19.90;53.40;;;;;;4929756;28;88961;-72
2022/03/24 08:12:56;;;;;;;25.02;11.38;;;19.90;53.40;;;;;;4930080;28;87353;-69
2022/03/24 08:15:22;;;;;;;24.08;11.20;;;19.90;53.60;;;;;;4928968;28;88385;-70
2022/03/24 08:17:48;;;;;;;29.15;11.30;;;19.90;53.40;;;;;;4942195;28;90370;-70
2022/03/24 08:20:14;;;;;;;24.58;11.43;;;19.90;53.50;;;;;;4928708;28;89896;-69
2022/03/24 08:22:39;;;;;;;29.10;11.50;;;19.90;53.50;;;;;;4929662;28;87371;-69
2022/03/24 08:25:08;;;;;;;31.58;12.60;;;19.90;53.50;;;;;;4931023;28;87020;-69
2022/03/24 08:27:37;;;;;;;23.63;11.90;;;19.90;53.90;;;;;;4930771;28;87518;-69
2022/03/24 08:30:05;;;;;;;21.95;11.70;;;19.90;53.60;;;;;;4929836;28;87471;-70
2022/03/24 08:32:30;;;;;;;28.83;11.73;;;19.90;53.60;;;;;;4928940;28;88584;-71
2022/03/24 08:34:56;;;;;;;25.23;10.82;;;19.90;53.80;;;;;;4929427;28;87792;-71
2022/03/24 08:37:22;;;;;;;27.70;11.40;;;19.90;53.70;;;;;;4930342;28;88908;-70
2022/03/24 08:39:47;;;;;;;25.75;10.68;;;19.90;53.80;;;;;;4929849;28;89839;-71
2022/03/24 08:42:13;;;;;;;25.92;11.20;;;19.90;53.80;;;;;;4929787;28;87604;-69
2022/03/24 08:44:39;;;;;;;27.42;11.38;;;19.90;53.80;;;;;;4929934;28;87494;-69
2022/03/24 08:47:05;;;;;;;22.38;10.55;;;19.90;53.70;;;;;;4930365;28;87991;-70
2022/03/24 08:49:31;;;;;;;23.83;11.43;;;19.90;54.00;;;;;;4930096;28;86976;-71
2022/03/24 08:51:57;;;;;;;20.40;10.88;;;19.90;54.00;;;;;;4929532;28;87982;-70
2022/03/24 08:54:23;;;;;;;24.02;11.02;;;19.90;54.10;;;;;;4929593;28;87418;-69
2022/03/24 08:56:48;;;;;;;24.52;11.00;;;19.90;54.20;;;;;;4930541;28;88970;-70
2022/03/24 08:59:14;;;;;;;23.88;10.65;;;19.90;54.00;;;;;;4933965;28;89028;-69
2022/03/24 09:01:43;;;;;;;20.30;10.45;;;19.90;54.10;;;;;;4933464;28;86825;-72
2022/03/24 09:04:10;;;;;;;19.77;10.85;;;19.90;54.10;;;;;;4933492;28;87609;-70
2022/03/24 09:06:36;;;;;;;23.92;11.23;;;19.90;54.10;;;;;;4933495;28;88475;-72
2022/03/24 09:09:02;;;;;;;24.35;11.13;;;19.90;54.80;;;;;;4932430;28;89136;-69
2022/03/24 09:11:28;;;;;;;22.35;12.10;;;19.90;54.00;;;;;;4933833;28;86924;-69
2022/03/24 09:13:54;;;;;;;21.05;10.43;;;19.90;54.40;;;;;;4963133;23;90819;-69
2022/03/24 09:16:20;;;;;;;22.67;11.02;;;19.90;54.30;;;;;;4946357;28;90523;-68
2022/03/24 09:18:47;;;;;;;20.95;10.23;;;19.90;54.40;;;;;;4931858;28;87768;-70
2022/03/24 09:21:13;;;;;;;21.98;11.25;;;19.90;54.50;;;;;;4932672;28;88467;-70
2022/03/24 09:23:39;;;;;;;19.75;10.73;;;20.00;54.40;;;;;;4933359;28;87766;-70
2022/03/24 09:26:05;;;;;;;20.63;9.27;;;19.90;54.50;;;;;;4932971;28;88182;-70
2022/03/24 09:28:31;;;;;;;15.95;9.52;;;20.00;54.50;;;;;;4915843;28;89132;-69
2022/03/24 09:30:57;;;;;;;22.67;10.35;;;20.00;54.60;;;;;;4934306;28;87928;-69
2022/03/24 09:33:24;;;;;;;22.13;10.18;;;20.00;54.70;;;;;;4932790;28;88054;-69
2022/03/24 09:35:50;;;;;;;18.45;9.52;;;20.00;54.70;;;;;;4933190;28;87687;-70
2022/03/24 09:38:17;;;;;;;17.38;9.82;;;20.00;54.70;;;;;;4933871;28;87327;-69
2022/03/24 09:40:45;;;;;;;20.23;9.93;;;20.00;54.70;;;;;;4916216;28;87168;-69
2022/03/24 09:43:13;;;;;;;19.15;10.15;;;19.90;54.70;;;;;;4933355;28;87694;-71
2022/03/24 09:45:41;;;;;;;19.45;10.18;;;20.00;54.70;;;;;;4932125;28;88564;-69
2022/03/24 09:48:07;;;;;;;18.63;10.00;;;20.00;54.60;;;;;;4932462;28;89629;-69
2022/03/24 09:50:34;;;;;;;19.70;10.52;;;20.00;54.60;;;;;;4914946;28;87941;-69
2022/03/24 09:53:01;;;;;;;18.27;9.90;;;20.00;54.80;;;;;;4930957;28;88310;-71
2022/03/24 09:55:30;;;;;;;17.38;9.43;;;20.00;54.90;;;;;;4933509;28;87921;-69
2022/03/24 09:57:57;;;;;;;17.13;9.85;;;20.00;54.90;;;;;;4932472;28;87974;-70
2022/03/24 10:00:23;;;;;;;19.40;9.85;;;20.00;54.90;;;;;;4915203;28;88051;-69
2022/03/24 10:03:12;;;;;;;15.85;9.65;;;20.00;55.00;;;;;;4916182;28;90468;-71
2022/03/24 10:05:55;;;;;;;23.67;9.10;;;20.00;54.80;;;;;;4933215;28;88212;-70
2022/03/24 10:08:22;;;;;;;15.07;9.35;;;20.00;54.80;;;;;;4947034;28;91000;-69
2022/03/24 10:10:47;;;;;;;18.42;9.48;;;20.00;55.00;;;;;;4945236;28;88432;-69
2022/03/24 10:13:24;;;;;;;16.75;9.18;;;20.00;54.90;;;;;;4932701;28;87945;-69
2022/03/24 10:15:50;;;;;;;18.45;9.65;;;20.00;54.90;;;;;;4932759;28;88112;-68
2022/03/24 10:18:16;;;;;;;18.35;9.00;;;20.00;55.00;;;;;;4932717;28;87380;-70
2022/03/24 10:20:42;;;;;;;17.20;10.55;;;20.00;54.90;;;;;;4933177;28;87418;-69
2022/03/24 10:23:10;;;;;;;14.45;8.65;;;20.00;55.20;;;;;;4933217;28;88047;-69
2022/03/24 10:25:40;;;;;;;17.13;9.45;;;20.00;55.20;;;;;;4933568;28;88141;-69
2022/03/24 10:28:12;;;;;;;15.60;8.63;;;20.00;55.20;;;;;;4948353;28;90791;-71
2022/03/24 10:30:59;;;;;;;15.40;8.88;;;20.00;55.10;;;;;;4932947;28;88008;-68
2022/03/24 10:33:30;;;;;;;14.52;8.88;;;20.00;55.20;;;;;;4932860;28;87595;-69
2022/03/24 10:36:11;;;;;;;17.38;9.10;;;20.00;55.30;;;;;;4914354;28;92330;-69
2022/03/24 10:38:42;;;;;;;17.30;9.77;;;20.00;55.30;;;;;;4931918;28;88871;-68
2022/03/24 10:41:25;;;;;;;19.42;9.05;;;20.00;55.40;;;;;;4933606;28;87691;-69
2022/03/24 10:43:54;;;;;;;13.70;8.68;;;20.00;55.20;;;;;;4932780;28;87930;-71
2022/03/24 10:46:27;;;;;;;15.60;8.88;;;20.00;55.20;;;;;;4932786;28;88131;-71
2022/03/24 10:48:55;;;;;;;20.63;9.20;;;20.00;55.30;;;;;;4932086;28;87139;-69
2022/03/24 10:51:43;;;;;;;13.02;8.18;;;20.00;55.40;;;;;;4914475;28;87391;-69
2022/03/24 10:54:17;;;;;;;14.98;8.65;;;20.00;55.40;;;;;;4928641;28;90130;-69
2022/03/24 10:57:00;;;;;;;15.18;8.70;;;20.00;55.40;;;;;;4914664;28;90483;-69
2022/03/24 10:59:32;;;;;;;14.57;8.38;;;20.00;55.40;;;;;;4932617;28;88251;-71
2022/03/24 11:02:18;;;;;;;17.42;9.80;;;20.00;55.20;;;;;;4947288;28;87837;-68
2022/03/24 11:04:45;;;;;;;13.82;9.20;;;20.00;55.10;;;;;;4914619;28;90276;-69
2022/03/24 11:07:10;;;;;;;17.48;10.90;;;20.00;55.00;;;;;;4932258;28;87867;-68
2022/03/24 11:09:39;;;;;;;21.48;10.00;;;20.00;55.20;;;;;;4931297;28;87915;-69
2022/03/24 11:12:33;;;;;;;19.73;10.57;;;20.00;55.50;;;;;;4931185;28;87275;-69
2022/03/24 11:15:01;;;;;;;16.73;10.32;;;20.00;55.90;;;;;;4929817;28;89434;-68
2022/03/24 11:17:30;;;;;;;17.15;10.35;;;20.00;56.00;;;;;;4931877;28;88013;-69
2022/03/24 11:20:04;;;;;;;14.80;9.40;;;20.00;56.30;;;;;;4931209;28;86319;-69
2022/03/24 11:22:44;;;;;;;17.50;10.38;;;20.00;56.10;;;;;;4913881;28;87743;-69
2022/03/24 11:25:10;;;;;;;17.17;10.30;;;20.10;56.00;;;;;;4913768;28;89405;-70
2022/03/24 11:27:36;;;;;;;19.45;10.20;;;20.00;56.20;;;;;;4930951;28;89332;-69
2022/03/24 11:30:04;;;;;;;14.90;9.57;;;20.10;55.90;;;;;;4923795;28;91874;-72
2022/03/24 11:32:34;;;;;;;18.30;10.15;;;20.10;55.90;;;;;;4932299;28;87535;-69
2022/03/24 11:35:05;;;;;;;17.55;10.32;;;20.10;56.10;;;;;;4931765;28;87037;-68
2022/03/24 11:37:31;;;;;;;18.77;9.43;;;20.10;56.20;;;;;;4901663;28;89699;-70
2022/03/24 11:40:34;;;;;;;17.60;10.07;;;20.10;56.60;;;;;;4932073;28;89390;-69
2022/03/24 11:43:21;;;;;;;17.50;10.65;;;20.10;56.70;;;;;;4833854;29;87699;-69
2022/03/24 11:45:58;;;;;;;17.88;10.20;;;20.10;57.10;;;;;;4909418;28;87561;-71
2022/03/24 11:48:34;;;;;;;16.65;9.88;;;20.10;57.00;;;;;;4893907;28;91122;-71
2022/03/24 11:51:21;;;;;;;19.08;10.57;;;20.10;57.30;;;;;;4937416;28;87833;-69
2022/03/24 11:54:03;;;;;;;19.50;9.57;;;20.10;57.50;;;;;;4929564;28;89606;-69
2022/03/24 11:56:30;;;;;;;20.95;9.98;;;20.10;57.40;;;;;;4931575;28;87540;-69
2022/03/24 11:58:55;;;;;;;16.83;9.98;;;20.10;57.80;;;;;;4929789;28;87755;-69
2022/03/24 12:01:26;;;;;;;17.25;10.82;;;20.10;57.80;;;;;;4930899;28;88004;-69
2022/03/24 12:03:55;;;;;;;20.92;10.30;;;20.10;57.40;;;;;;4929834;28;87581;-68
2022/03/24 12:06:40;;;;;;;19.40;10.27;;;20.10;57.20;;;;;;4944404;28;87901;-69
2022/03/24 12:09:09;;;;;;;17.88;10.30;;;20.10;57.40;;;;;;4929190;28;87985;-70
2022/03/24 12:11:41;;;;;;;18.85;9.77;;;20.10;57.70;;;;;;4929895;28;87328;-69
2022/03/24 12:14:11;;;;;;;20.95;10.73;;;20.10;57.40;;;;;;4930905;28;87565;-68
2022/03/24 12:16:39;;;;;;;19.23;10.07;;;20.10;57.40;;;;;;4912847;28;90519;-69
2022/03/24 12:19:08;;;;;;;15.35;10.65;;;20.10;57.40;;;;;;4929529;28;88793;-69
2022/03/24 12:21:34;;;;;;;15.85;10.32;;;20.10;56.80;;;;;;4928848;28;89894;-71
2022/03/24 12:24:15;;;;;;;18.25;10.43;;;20.10;56.80;;;;;;4931208;28;87376;-69
2022/03/24 12:26:56;;;;;;;18.40;10.48;;;20.10;57.20;;;;;;4913560;28;89658;-70
2022/03/24 12:29:24;;;;;;;16.98;10.63;;;20.10;57.40;;;;;;4929795;28;87977;-70
2022/03/24 12:32:12;;;;;;;16.63;10.18;;;20.10;57.20;;;;;;4911555;28;91132;-69
2022/03/24 12:34:38;;;;;;;13.57;9.75;;;20.10;57.10;;;;;;4932921;28;87346;-70
2022/03/24 12:37:07;;;;;;;17.48;10.25;;;20.00;56.90;;;;;;4935025;28;86938;-69
2022/03/24 12:39:38;;;;;;;16.27;9.93;;;20.00;57.50;;;;;;4934193;28;87702;-69
2022/03/24 12:42:12;;;;;;;12.77;10.00;;;20.10;57.40;;;;;;4916994;28;91594;-69
2022/03/24 12:45:01;;;;;;;16.55;10.45;;;20.10;57.90;;;;;;4934141;28;88420;-73
2022/03/24 12:47:47;;;;;;;17.73;11.40;;;20.10;57.10;;;;;;4933715;28;87732;-68
2022/03/24 12:50:15;;;;;;;13.05;10.52;;;20.10;57.30;;;;;;4933913;28;88050;-69
2022/03/24 12:53:02;;;;;;;15.65;10.18;;;20.10;57.30;;;;;;4933996;28;87835;-69
2022/03/24 12:55:39;;;;;;;18.00;12.05;;;20.10;57.50;;;;;;4933930;28;87823;-70